createdAt,value
2022-09-04T00:00:58.166Z,95402.03
2022-09-04T00:04:45.785Z,95394.56
2022-09-04T00:08:42.436Z,95398.69
2022-09-04T00:12:29.695Z,95402.81
2022-09-04T00:16:15.689Z,95401.63
2022-09-04T00:20:02.815Z,95397.97
2022-09-04T00:23:51.987Z,95401.19
2022-09-04T00:27:43.516Z,95403.16
2022-09-04T00:31:29.315Z,95405.00
2022-09-04T00:35:15.524Z,95400.75
2022-09-04T00:39:06.534Z,95399.13
2022-09-04T00:43:08.990Z,95407.28
2022-09-04T00:47:07.298Z,95406.03
2022-09-04T00:51:15.124Z,95406.47
2022-09-04T00:55:10.769Z,95414.41
2022-09-04T00:59:05.455Z,95413.38
2022-09-04T01:03:02.244Z,95413.53
2022-09-04T01:06:51.188Z,95419.38
2022-09-04T01:10:42.492Z,95421.00
2022-09-04T01:14:34.398Z,95423.44
2022-09-04T01:18:25.602Z,95428.72
2022-09-04T01:22:17.650Z,95427.09
2022-09-04T01:26:08.860Z,95422.25
2022-09-04T01:30:00.130Z,95437.75
2022-09-04T01:33:47.569Z,95432.94
2022-09-04T01:37:42.003Z,95432.94
2022-09-04T01:41:29.367Z,95444.53
2022-09-04T01:45:12.315Z,95433.50
2022-09-04T01:49:05.496Z,95441.88
2022-09-04T01:52:56.631Z,95438.22
2022-09-04T01:56:45.483Z,95435.56
2022-09-04T02:00:31.072Z,95442.03
2022-09-04T02:04:24.142Z,95442.25
2022-09-04T02:08:18.628Z,95441.88
2022-09-04T02:12:10.031Z,95440.84
2022-09-04T02:16:01.534Z,95440.28
2022-09-04T02:19:58.951Z,95441.06
2022-09-04T02:23:46.809Z,95442.09
2022-09-04T02:27:36.599Z,95443.94
2022-09-04T02:31:27.238Z,95445.34
2022-09-04T02:35:16.729Z,95438.22
2022-09-04T02:39:05.025Z,95447.19
2022-09-04T02:42:59.699Z,95441.31
2022-09-04T02:46:51.854Z,95442.34
2022-09-04T02:50:46.178Z,95442.78
2022-09-04T02:54:40.415Z,95449.69
2022-09-04T02:58:33.689Z,95441.97
2022-09-04T03:02:23.001Z,95452.19
2022-09-04T03:06:10.091Z,95445.50
2022-09-04T03:09:55.656Z,95442.63
2022-09-04T03:13:43.024Z,95447.91
2022-09-04T03:17:31.018Z,95451.50
2022-09-04T03:21:19.280Z,95456.72
2022-09-04T03:25:13.206Z,95460.75
2022-09-04T03:29:03.326Z,95460.97
2022-09-04T03:32:52.363Z,95454.97
2022-09-04T03:36:41.263Z,95458.50
2022-09-04T03:40:35.161Z,95463.63
2022-09-04T03:44:25.125Z,95474.63
2022-09-04T03:48:21.228Z,95467.72
2022-09-04T03:52:08.040Z,95474.69
2022-09-04T03:56:06.908Z,95461.69
2022-09-04T04:00:04.742Z,95472.28
2022-09-04T04:04:09.157Z,95476.38
2022-09-04T04:08:00.825Z,95471.09
2022-09-04T04:12:13.411Z,95477.19
2022-09-04T04:16:06.777Z,95479.91
2022-09-04T04:20:03.309Z,95486.22
2022-09-04T04:24:15.399Z,95489.44
2022-09-04T04:28:17.145Z,95494.28
2022-09-04T04:32:21.031Z,95492.25
2022-09-04T04:36:10.074Z,95502.00
2022-09-04T04:39:58.197Z,95506.50
2022-09-04T04:43:57.587Z,95511.19
2022-09-04T04:48:00.151Z,95515.88
2022-09-04T04:51:52.610Z,95526.44
2022-09-04T04:55:40.407Z,95537.03
2022-09-04T04:59:27.066Z,95537.03
2022-09-04T05:03:20.229Z,95542.69
2022-09-04T05:07:08.549Z,95543.88
2022-09-04T05:10:54.895Z,95541.00
2022-09-04T05:14:45.856Z,95555.03
2022-09-04T05:18:33.270Z,95561.50
2022-09-04T05:22:21.389Z,95561.28
2022-09-04T05:26:12.738Z,95562.47
2022-09-04T05:30:01.547Z,95567.75
2022-09-04T05:33:57.254Z,95577.91
2022-09-04T05:37:45.043Z,95578.50
2022-09-04T05:41:37.862Z,95586.16
2022-09-04T05:45:25.417Z,95585.44
2022-09-04T05:49:17.701Z,95597.94
2022-09-04T05:53:42.016Z,95594.19
2022-09-04T05:57:35.795Z,95588.81
2022-09-04T06:01:38.917Z,95597.69
2022-09-04T06:05:30.997Z,95609.91
2022-09-04T06:09:29.602Z,95613.50
2022-09-04T06:13:32.760Z,95619.06
2022-09-04T06:17:29.826Z,95616.34
2022-09-04T06:21:51.974Z,95617.66
2022-09-04T06:26:01.534Z,95622.88
2022-09-04T06:29:53.294Z,95628.88
2022-09-04T06:33:47.115Z,95631.63
2022-09-04T06:37:38.322Z,95633.16
2022-09-04T06:41:35.597Z,95634.22
2022-09-04T06:45:26.853Z,95643.00
2022-09-04T06:49:13.299Z,95638.56
2022-09-04T06:53:06.232Z,95646.38
2022-09-04T06:57:24.862Z,95654.13
2022-09-04T07:01:11.823Z,95650.22
2022-09-04T07:05:04.099Z,95652.06
2022-09-04T07:09:01.174Z,95649.19
2022-09-04T07:13:13.173Z,95658.81
2022-09-04T07:17:05.087Z,95654.53
2022-09-04T07:20:55.637Z,95662.47
2022-09-04T07:24:53.503Z,95673.91
2022-09-04T07:28:47.263Z,95668.59
2022-09-04T07:32:35.730Z,95682.13
2022-09-04T07:36:25.306Z,95678.88
2022-09-04T07:40:16.095Z,95682.53
2022-09-04T07:44:04.539Z,95672.66
2022-09-04T07:47:55.085Z,95676.44
2022-09-04T07:51:44.329Z,95675.50
2022-09-04T07:55:37.493Z,95681.81
2022-09-04T07:59:36.861Z,95686.75
2022-09-04T08:03:31.600Z,95702.44
2022-09-04T08:07:20.878Z,95708.59
2022-09-04T08:11:18.039Z,95719.06
2022-09-04T08:15:10.836Z,95705.81
2022-09-04T08:19:06.978Z,95717.13
2022-09-04T08:23:05.587Z,95717.75
2022-09-04T08:26:59.798Z,95714.69
2022-09-04T08:30:50.546Z,95719.06
2022-09-04T08:34:54.705Z,95710.66
2022-09-04T08:38:56.598Z,95724.25
2022-09-04T08:43:06.652Z,95733.94
2022-09-04T08:47:24.184Z,95729.72
2022-09-04T08:51:34.534Z,95729.03
2022-09-04T08:55:34.720Z,95739.03
2022-09-04T08:59:42.673Z,95740.81
2022-09-04T09:03:51.675Z,95746.44
2022-09-04T09:07:51.377Z,95734.66
2022-09-04T09:11:50.041Z,95744.31
2022-09-04T09:15:57.809Z,95744.50
2022-09-04T09:19:55.635Z,95735.19
2022-09-04T09:24:09.924Z,95738.06
2022-09-04T09:28:34.217Z,95737.75
2022-09-04T09:32:46.912Z,95734.16
2022-09-04T09:37:02.834Z,95734.97
2022-09-04T09:41:06.396Z,95733.38
2022-09-04T09:45:06.224Z,95736.03
2022-09-04T09:49:16.887Z,95728.44
2022-09-04T09:53:29.709Z,95719.59
2022-09-04T09:57:47.951Z,95719.44
2022-09-04T10:01:50.026Z,95709.69
2022-09-04T10:05:46.040Z,95714.53
2022-09-04T10:09:49.906Z,95708.66
2022-09-04T10:14:24.431Z,95715.75
2022-09-04T10:18:43.906Z,95716.94
2022-09-04T10:23:04.092Z,95722.00
2022-09-04T10:27:19.889Z,95721.22
2022-09-04T10:31:47.302Z,95725.59
2022-09-04T10:35:34.321Z,95725.25
2022-09-04T10:39:42.947Z,95722.09
2022-09-04T10:43:47.069Z,95722.91
2022-09-04T10:47:45.525Z,95724.44
2022-09-04T10:52:10.645Z,95720.47
2022-09-04T10:56:16.719Z,95728.09
2022-09-04T11:00:09.310Z,95726.78
2022-09-04T11:04:13.892Z,95728.66
2022-09-04T11:08:26.199Z,95722.22
2022-09-04T11:12:35.369Z,95719.03
2022-09-04T11:16:57.835Z,95730.31
2022-09-04T11:21:25.635Z,95728.19
2022-09-04T11:25:47.185Z,95737.75
2022-09-04T11:29:41.265Z,95724.00
2022-09-04T11:34:10.123Z,95725.53
2022-09-04T11:38:20.967Z,95718.84
2022-09-04T11:42:28.964Z,95726.13
2022-09-04T11:46:36.465Z,95727.44
2022-09-04T11:50:38.656Z,95719.97
2022-09-04T11:54:51.889Z,95728.84
2022-09-04T11:59:16.577Z,95724.38
2022-09-04T12:03:30.977Z,95713.19
2022-09-04T12:07:28.294Z,95711.88
2022-09-04T12:11:38.877Z,95722.94
2022-09-04T12:15:54.635Z,95719.22
2022-09-04T12:20:24.096Z,95707.41
2022-09-04T12:24:23.174Z,95705.53
2022-09-04T12:28:27.709Z,95709.50
2022-09-04T12:32:27.716Z,95712.06
2022-09-04T12:36:43.254Z,95710.38
2022-09-04T12:40:34.516Z,95705.41
2022-09-04T12:44:26.714Z,95714.19
2022-09-04T12:48:14.964Z,95706.13
2022-09-04T12:52:05.609Z,95710.94
2022-09-04T12:56:03.092Z,95710.34
2022-09-04T12:59:57.471Z,95709.06
2022-09-04T13:03:47.300Z,95709.81
2022-09-04T13:07:41.002Z,95710.88
2022-09-04T13:11:37.256Z,95720.66
2022-09-04T13:15:28.327Z,95722.19
2022-09-04T13:19:17.327Z,95711.09
2022-09-04T13:23:12.556Z,95719.25
2022-09-04T13:27:15.848Z,95720.91
2022-09-04T13:31:05.541Z,95727.66
2022-09-04T13:35:03.907Z,95718.41
2022-09-04T13:39:16.429Z,95719.25
2022-09-04T13:43:34.327Z,95722.78
2022-09-04T13:47:22.929Z,95723.00
2022-09-04T13:51:18.955Z,95719.13
2022-09-04T13:55:04.223Z,95723.69
2022-09-04T13:58:51.471Z,95724.34
2022-09-04T14:02:39.073Z,95723.34
2022-09-04T14:06:23.339Z,95721.75
2022-09-04T14:10:11.723Z,95712.19
2022-09-04T14:14:30.923Z,95711.81
2022-09-04T14:18:25.195Z,95717.91
2022-09-04T14:22:16.651Z,95706.63
2022-09-04T14:26:04.890Z,95713.69
2022-09-04T14:30:03.469Z,95708.63
2022-09-04T14:33:53.529Z,95711.72
2022-09-04T14:38:00.343Z,95713.31
2022-09-04T14:42:02.365Z,95711.13
2022-09-04T14:46:07.044Z,95715.13
2022-09-04T14:49:53.495Z,95709.91
2022-09-04T14:53:36.398Z,95712.88
2022-09-04T14:57:23.867Z,95709.91
2022-09-04T15:01:10.155Z,95718.09
2022-09-04T15:05:01.220Z,95720.66
2022-09-04T15:08:45.161Z,95710.41
2022-09-04T15:12:30.468Z,95708.78
2022-09-04T15:16:28.954Z,95705.56
2022-09-04T15:20:17.009Z,95705.09
2022-09-04T15:24:07.702Z,95703.69
2022-09-04T15:27:54.591Z,95708.69
2022-09-04T15:31:38.793Z,95709.19
2022-09-04T15:35:32.848Z,95718.00
2022-09-04T15:39:29.189Z,95717.00
2022-09-04T15:43:18.500Z,95710.78
2022-09-04T15:47:06.840Z,95714.81
2022-09-04T15:51:01.280Z,95711.13
2022-09-04T15:55:03.962Z,95711.31
2022-09-04T15:58:53.297Z,95715.78
2022-09-04T16:02:42.935Z,95715.94
2022-09-04T16:06:32.279Z,95714.03
2022-09-04T16:10:18.046Z,95713.56
2022-09-04T16:14:02.449Z,95717.28
2022-09-04T16:17:47.050Z,95723.19
2022-09-04T16:21:40.542Z,95723.19
2022-09-04T16:25:28.974Z,95717.28
2022-09-04T16:29:26.803Z,95715.94
2022-09-04T16:33:27.377Z,95726.78
2022-09-04T16:37:15.114Z,95724.69
2022-09-04T16:41:01.582Z,95726.41
2022-09-04T16:44:46.443Z,95729.91
2022-09-04T16:48:34.922Z,95727.59
2022-09-04T16:52:34.451Z,95728.41
2022-09-04T16:56:26.266Z,95736.00
2022-09-04T17:00:11.527Z,95727.63
2022-09-04T17:04:13.778Z,95728.34
2022-09-04T17:08:03.098Z,95726.66
2022-09-04T17:11:55.766Z,95736.47
2022-09-04T17:15:53.899Z,95737.94
2022-09-04T17:19:40.090Z,95741.50
2022-09-04T17:29:00.827Z,95741.25
2022-09-04T17:29:14.871Z,95741.03
2022-09-04T17:31:51.039Z,95745.13
2022-09-04T17:40:42.242Z,95742.94
2022-09-04T17:40:49.127Z,95745.53
2022-09-04T17:44:10.241Z,95739.75
2022-09-04T17:48:02.201Z,95748.00
2022-09-04T17:51:51.636Z,95751.38
2022-09-04T17:55:49.452Z,95756.03
2022-09-04T17:59:38.975Z,95759.66
2022-09-04T18:03:29.701Z,95767.78
2022-09-04T18:07:21.900Z,95768.91
2022-09-04T18:11:24.019Z,95776.75
2022-09-04T18:15:12.990Z,95781.34
2022-09-04T18:19:18.495Z,95782.47
2022-09-04T18:23:14.437Z,95791.59
2022-09-04T18:27:03.947Z,95781.94
2022-09-04T18:37:07.651Z,95791.63
2022-09-04T18:37:24.548Z,95798.84
2022-09-04T18:39:09.221Z,95803.38
2022-09-04T18:50:30.863Z,95810.81
2022-09-04T18:50:40.488Z,95812.72
2022-09-04T18:51:31.355Z,95821.94
2022-09-04T18:55:18.232Z,95819.47
2022-09-04T18:59:07.766Z,95809.78
2022-09-04T19:02:54.416Z,95823.41
2022-09-04T19:06:39.117Z,95818.06
2022-09-04T19:10:25.615Z,95819.34
2022-09-04T19:14:15.336Z,95827.03
2022-09-04T19:18:01.207Z,95825.41
2022-09-04T19:21:57.846Z,95823.75
2022-09-04T19:25:44.381Z,95821.28
2022-09-04T19:29:35.731Z,95821.47
2022-09-04T19:33:31.778Z,95817.66
2022-09-04T19:39:37.081Z,95807.47
2022-09-04T19:45:55.021Z,95819.78
2022-09-04T19:46:16.448Z,95818.19
2022-09-04T19:53:19.281Z,95819.50
2022-09-04T19:53:57.655Z,95818.59
2022-09-04T19:57:44.028Z,95811.63
2022-09-04T20:01:33.608Z,95815.38
2022-09-04T20:05:21.546Z,95815.88
2022-09-04T20:09:11.788Z,95821.72
2022-09-04T20:13:01.888Z,95822.50
2022-09-04T20:16:53.610Z,95820.56
2022-09-04T20:20:46.076Z,95806.00
2022-09-04T20:24:36.078Z,95809.09
2022-09-04T20:28:24.577Z,95805.03
2022-09-04T20:32:13.215Z,95808.44
2022-09-04T20:36:03.874Z,95806.75
2022-09-04T20:39:49.738Z,95817.94
2022-09-04T20:43:49.635Z,95819.72
2022-09-04T20:52:44.598Z,95819.41
2022-09-04T20:52:48.975Z,95819.34
2022-09-04T20:56:01.900Z,95820.59
2022-09-04T21:03:13.906Z,95815.97
2022-09-04T21:04:09.033Z,95819.88
2022-09-04T21:07:57.757Z,95823.19
2022-09-04T21:11:43.438Z,95816.66
2022-09-04T21:15:34.704Z,95819.25
2022-09-04T21:19:40.603Z,95817.94
2022-09-04T21:23:56.526Z,95822.41
2022-09-04T21:28:28.309Z,95827.78
2022-09-04T21:32:36.306Z,95826.91
2022-09-04T21:36:27.672Z,95838.06
2022-09-04T21:40:51.582Z,95842.28
2022-09-04T21:44:46.829Z,95839.84
2022-09-04T21:48:48.669Z,95838.38
2022-09-04T21:52:55.745Z,95842.03
2022-09-04T22:02:31.479Z,95834.03
2022-09-04T22:02:43.462Z,95842.59
2022-09-04T22:05:25.222Z,95839.34
2022-09-04T22:13:27.236Z,95849.06
2022-09-04T22:13:47.857Z,95837.75
2022-09-04T22:17:50.800Z,95837.75
2022-09-04T22:21:47.903Z,95844.38
2022-09-04T22:25:46.107Z,95840.00
2022-09-04T22:29:48.818Z,95840.97
2022-09-04T22:34:14.360Z,95849.66
2022-09-04T22:38:30.378Z,95841.13
2022-09-04T22:42:42.553Z,95850.31
2022-09-04T22:46:39.647Z,95844.88
2022-09-04T22:50:51.480Z,95843.50
2022-09-04T22:54:48.476Z,95841.06
2022-09-04T22:58:48.330Z,95843.16
2022-09-04T23:03:09.573Z,95830.91
2022-09-04T23:11:42.099Z,95842.03
2022-09-04T23:14:00.478Z,95835.56
2022-09-04T23:15:37.271Z,95832.81
2022-09-04T23:26:39.155Z,95848.94
2022-09-04T23:26:46.818Z,95838.44
2022-09-04T23:28:27.568Z,95850.03
2022-09-04T23:32:26.379Z,95845.09
2022-09-04T23:36:33.415Z,95841.16
2022-09-04T23:40:31.211Z,95831.56
2022-09-04T23:44:34.477Z,95838.16
2022-09-04T23:48:30.826Z,95833.09
2022-09-04T23:52:22.954Z,95827.19
2022-09-04T23:56:26.246Z,95822.81
